EGCC/MAN METAR and TAF weather

Enter ICAO airport designator
Station Type Date Time Source
EGCC METAR 2019/12/14 11:20 UTC NOAA

EGCC 141120Z 23009KT 9999 FEW020 SCT034 04/02 Q0985


Station Type Date Time Source
EGCC Decoded METAR 2019/12/14 11:20 UTC NOAA

Manchester Airport, United Kingdom (EGCC) 53-21N 002-17W 0M
Dec 14, 2019 - 06:20 AM EST / 2019.12.14 1120 UTC
Wind: from the SW (230 degrees) at 10 MPH (9 KT):0
Visibility: greater than 7 mile(s):0
Sky conditions: partly cloudy
Temperature: 39 F (4 C)
Dew Point: 35 F (2 C)
Relative Humidity: 86%
Pressure (altimeter): 29.09 in. Hg (0985 hPa)
ob: EGCC 141120Z 23009KT 9999 FEW020 SCT034 04/02 Q0985
cycle: 11

Station Type Date Time Source
EGCC TAF 2019/12/14 12:09 UTC NOAA

TAF EGCC 141101Z 1412/1518 24014KT 9999 FEW010 SCT030
TEMPO 1412/1415 6000 SHRA BKN010
BECMG 1417/1420 18010KT BKN010
TEMPO 1419/1502 8000 -RA BKN008 PROB30
TEMPO 1421/1502 4000 RA BKN004
BECMG 1502/1505 24012KT SCT025 PROB30
TEMPO 1502/1509 6000 SHRA
BECMG 1512/1515 18009KT PROB30
TEMPO 1515/1518 8000 BKN014

Example: see airport list